Station CKYF1 - 8727520 - Cedar Key, FL Image indicating link to RSS feed of recent meteorological observations for station CKYF1


Conditions at CKYF1 as of
1948 GMT on 07/22/2024:
     

Click on the graph icon in the table below to see a time series plot of the last five days of that observation.

5-day plot - Wind Direction Wind Direction (WDIR): W ( 260 deg true )
5-day plot - Wind Speed Wind Speed (WSPD): 7.0 kts
5-day plot - Wind Gust Wind Gust (GST): 8.9 kts
5-day plot - Atmospheric Pressure Atmospheric Pressure (PRES):30.01 in
5-day plot - Water Temperature Water Temperature (WTMP): 89.4 °F
5-day plot - Wind Speed at 10 Meters Wind Speed at 10 meters (WSPD10M): 7.8 kts
5-day plot - Wind Speed at 20 Meters Wind Speed at 20 meters (WSPD20M): 7.8 kts
5-day plot -  Wind Speed, Wind Gust and Atmospheric Pressure Combined plot of Wind Speed, Gust, and Air Pressure
NOS Water Level Observation Network Water Level
Previous observations
TIME
(GMT)
5-day plot - Wind Direction
WDIR
 
5-day plot - Wind Speed
WSPD
kts
5-day plot - Wind Gust
GST
kts
5-day plot - Wave Height
WVHT
ft
5-day plot - Dominant Wave Period
DPD
sec
5-day plot - Average Wave Period
APD
sec
5-day plot - Mean Wave Direction
MWD
 
5-day plot - Atmospheric Pressure
PRES
in
5-day plot - Pressure Tendency
PTDY
in
5-day plot - Air Temperature
ATMP
°F
5-day plot - Water Temperature
WTMP
°F
5-day plot - Dew Point
DEWP
°F
5-day plot - Salinity
SAL
psu
5-day plot - Visibility
VIS
nmi
5-day plot - Tide (above MLLW)
TIDE
ft
2024-07-22 1942 W 7.0 8.0----30.01-- 89.4----
2024-07-22 1936WSW 7.0 8.9----30.01-- 89.4----
2024-07-22 1930WSW 8.9 9.9----30.01- 86.9 89.4----
2024-07-22 1924 SW 8.9 9.9----30.01- 86.9 89.4----
2024-07-22 1918 SW 8.0 9.9----30.02- 87.1 89.4----
2024-07-22 1912WSW 8.9 9.9----30.02- 87.4 89.4----
2024-07-22 1906 SW 7.0 8.9----30.03- 87.1 89.4----
2024-07-22 1900 SW 6.0 11.1----30.03-0.02 86.9 89.4----
2024-07-22 1854WSW 9.9 12.0----30.03- 86.7 89.4----
2024-07-22 1848 SW 11.1 13.0----30.02- 86.5 89.4----
2024-07-22 1842 SW 11.1 13.0----30.01- 86.5 89.4----
2024-07-22 1836 SW 9.9 11.1----30.01- 86.5 89.4----
2024-07-22 1830 SW 8.0 8.9----30.01- 86.5 89.4----
2024-07-22 1824 SW 8.9 9.9----30.02- 86.4 89.2----
2024-07-22 1818 SW 8.9 9.9----30.03- 86.4 89.2----
2024-07-22 1812SSW 8.0 9.9----30.03- 86.2 89.2----
2024-07-22 1806SSW 8.9 9.9----30.03- 86.2 89.2----
2024-07-22 1800SSW 8.0 8.9----30.03-0.02 86.2 89.2----
2024-07-22 1754 SW 8.0 9.9----30.03- 86.0 89.2----
2024-07-22 1748 SW 8.0 9.9----30.03- 86.0 89.2----
2024-07-22 1742SSW 7.0 8.9----30.03- 85.8 89.2----
2024-07-22 1736SSW 8.0 8.9----30.03- 85.6 89.2----
2024-07-22 1730SSW 8.0 8.9----30.03- 85.6 89.2----
2024-07-22 1724SSW 7.0 8.9----30.03- 85.8 89.2----
2024-07-22 1718SSW 6.0 8.0----30.04- 85.8 89.2----
2024-07-22 1712 S 5.1 7.0----30.04- 86.0 89.2----
2024-07-22 1706 S 5.1 7.0----30.04- 85.8 89.1----
2024-07-22 1700 S 5.1 7.0----30.04+0.00 85.8 89.1----
2024-07-22 1654 S 5.1 7.0----30.05- 85.8 89.1----
2024-07-22 1648 S 5.1 7.0----30.05- 85.8 89.1----
2024-07-22 1642 S 4.1 8.0----30.05- 85.8 89.1----
2024-07-22 1636 S 5.1 6.0----30.05- 85.6 89.1----
2024-07-22 1630 SE 4.1 5.1----30.05- 85.5 89.1----
2024-07-22 1624SSE 4.1 5.1----30.05- 85.3 89.1----
2024-07-22 1618 SE 4.1 5.1----30.05- 85.3 89.1----
2024-07-22 1612 SE 5.1 5.1----30.05- 85.1 88.9----
2024-07-22 1606 SE 2.9 5.1----30.05- 85.3 88.9----
2024-07-22 1600 SE 2.9 6.0----30.06+0.03 85.3 88.9----
2024-07-22 1554 SE 5.1 6.0----30.06- 85.1 88.9----
2024-07-22 1548 SE 4.1 6.0----30.06- 85.1 88.9----
2024-07-22 1542ESE 5.1 7.0----30.06- 84.9 88.9----
2024-07-22 1536ESE 5.1 6.0----30.06- 84.9 88.9----
2024-07-22 1530 SE 5.1 6.0----30.06- 84.7 88.9----
2024-07-22 1524ESE 5.1 6.0----30.06- 84.9 88.9----
2024-07-22 1518ESE 5.1 7.0----30.06- 84.9 88.7----
2024-07-22 1512ESE 5.1 7.0----30.06- 84.9 88.7----
2024-07-22 1506ESE 6.0 7.0----30.06- 84.7 88.7----
2024-07-22 1500 SE 6.0 7.0----30.06+0.04 84.6 88.7----
2024-07-22 1454ESE 6.0 8.0----30.05- 84.7 88.7----
2024-07-22 1448ESE 6.0 8.0----30.05- 84.7 88.7----
2024-07-22 1442ESE 6.0 7.0----30.05- 84.6 88.7----
2024-07-22 1436ESE 6.0 8.9----30.05- 84.6 88.7----
2024-07-22 1430ESE 7.0 8.0----30.05- 84.4 88.7----
2024-07-22 1424 SE 6.0 8.0----30.05- 84.2 88.7----
2024-07-22 1418ESE 6.0 7.0----30.05- 84.2 88.7----
2024-07-22 1412ESE 6.0 7.0----30.05- 84.4 88.7----
2024-07-22 1406ESE 6.0 8.0----30.05- 84.2 88.7----
2024-07-22 1400ESE 6.0 7.0----30.05+0.05 84.2 88.7----
2024-07-22 1354ESE 7.0 8.0----30.05- 84.2 88.7----
2024-07-22 1348ESE 5.1 7.0----30.05- 84.4 88.7----
2024-07-22 1342ESE 6.0 8.9----30.04- 84.0 88.7----
2024-07-22 1336ESE 7.0 8.0----30.04- 83.8 88.9----
2024-07-22 1330ESE 7.0 8.9----30.04- 83.8 88.9----
2024-07-22 1324ESE 8.9 9.9----30.04- 83.7 88.9----
2024-07-22 1318ESE 8.0 9.9----30.04- 83.5 88.9----
2024-07-22 1312 E 8.0 9.9----30.03- 83.5 88.9----
2024-07-22 1306 E 8.0 8.9----30.03- 83.3 88.9----
2024-07-22 1300 E 8.0 8.9----30.03+0.03 83.8 88.9----
2024-07-22 1254 E 7.0 8.0----30.03- 83.7 88.9----
2024-07-22 1248 E 7.0 8.0----30.03- 83.5 88.9----
2024-07-22 1242ENE 7.0 8.0----30.02- 83.1 88.9----
2024-07-22 1236ENE 6.0 7.0----30.02- 83.3 89.1----
2024-07-22 1230 NE 7.0 8.0----30.02- 82.8 89.1----
2024-07-22 1224 NE 5.1 6.0----30.01- 83.3 89.1----
2024-07-22 1218ENE 5.1 6.0----30.01- 83.8 89.1----
2024-07-22 1212 NE 5.1 6.0----30.01- 83.3 89.1----
2024-07-22 1206ENE 5.1 7.0----30.01- 83.8 89.1----
2024-07-22 1200 E 4.1 5.1----30.01+0.01 84.0 89.1----
2024-07-22 1154ENE 4.1 5.1----30.01- 84.0 89.1----
2024-07-22 1148 NE 4.1 5.1----30.01- 83.8 89.1----
2024-07-22 1142ENE 4.1 5.1----30.01- 83.7 89.1----
2024-07-22 1136 E 2.9 5.1----30.01- 83.3 89.1----
2024-07-22 1130 E 5.1 8.0----30.01- 83.3 89.2----
2024-07-22 1124ESE 6.0 8.0----30.00- 83.3 89.2----
2024-07-22 1118ESE 7.0 8.9----30.00- 83.3 89.2----
2024-07-22 1112ESE 8.0 8.9----30.00- 83.1 89.2----
2024-07-22 1106ESE 7.0 8.9----30.00- 83.1 89.2----
2024-07-22 1100 E 8.9 9.9----30.00+0.00 82.6 89.2----
2024-07-22 1054 E 7.0 8.9----30.00- 82.8 89.2----
2024-07-22 1048 E 8.9 9.9----30.00- 82.8 89.2----
2024-07-22 1042 E 8.9 11.1----30.00- 82.6 89.4----
2024-07-22 1036 E 8.9 9.9----30.00- 82.6 89.4----
2024-07-22 1030 E 8.9 9.9----30.00- 82.8 89.4----
2024-07-22 1024 E 7.0 8.9----30.00- 82.8 89.4----
2024-07-22 1018 E 8.0 8.9----30.00- 82.6 89.4----
2024-07-22 1012ENE 7.0 7.0----30.00- 82.4 89.6----
2024-07-22 1006 E 6.0 6.0----30.00- 82.6 89.6----
2024-07-22 1000ENE 6.0 8.0----30.00-0.02 82.0 89.6----
2024-07-22 0954ENE 5.1 7.0----29.99- 82.2 89.6----
2024-07-22 0948ENE 6.0 7.0----29.99- 82.2 89.6----
2024-07-22 0942 NE 5.1 6.0----29.99- 82.0 89.6----
2024-07-22 0936 NE 5.1 7.0----29.99- 82.0 89.8----
2024-07-22 0930ENE 6.0 8.9----29.99- 82.4 89.8----
2024-07-22 0924ENE 6.0 8.0----30.00- 82.6 89.8----
2024-07-22 0918ENE 7.0 8.0----29.99- 83.3 89.8----
2024-07-22 0912 E 7.0 8.9----29.99- 83.1 89.8----
2024-07-22 0906 E 7.0 8.0----29.99- 83.5 89.8----
2024-07-22 0900 E 6.0 7.0----30.00-0.04 84.0 90.0----
2024-07-22 0854- 0.0 4.1----30.00- 84.7 90.0----
2024-07-22 0848SSE 2.9 4.1----29.99- 84.7 90.0----
2024-07-22 0842SSE 4.1 4.1----30.00- 84.6 90.0----
2024-07-22 0836SSE 4.1 4.1----30.00- 84.6 90.0----
2024-07-22 0830 S 2.9 4.1----30.00- 84.6 90.0----
2024-07-22 0824 S 4.1 4.1----30.00- 84.6 90.0----
2024-07-22 0818SSE 4.1 5.1----30.00- 84.6 90.0----
2024-07-22 0812 S 2.9 6.0----30.00- 84.6 90.0----
2024-07-22 0806 SE 5.1 5.1----30.00- 84.7 90.0----
2024-07-22 0800 SE 4.1 5.1----30.00-0.05 84.7 90.1----
2024-07-22 0754SSE 2.9 4.1----30.00- 84.7 90.1----
2024-07-22 0748 S 2.9 4.1----30.01- 84.6 90.1----
2024-07-22 0742 SE 2.9 2.9----30.01- 84.7 90.1----
2024-07-22 0736ESE 2.9 2.9----30.01- 84.6 90.1----
2024-07-22 0730 SE 1.9 4.1----30.01- 84.6 90.1----
2024-07-22 0724 SE 2.9 4.1----30.01- 84.6 90.1----
2024-07-22 0718 SE 4.1 5.1----30.01- 84.6 90.1----
2024-07-22 0712ESE 4.1 5.1----30.01- 84.6 90.1----
2024-07-22 0706 SE 4.1 6.0----30.01- 84.6 90.1----
2024-07-22 0700 SE 5.1 6.0----30.01-0.05 84.6 90.1----
2024-07-22 0654SSE 5.1 6.0----30.02- 84.4 90.3----
2024-07-22 0648SSE 5.1 5.1----30.01- 84.2 90.3----
2024-07-22 0642 S 4.1 6.0----30.01- 84.2 90.3----
2024-07-22 0636SSE 5.1 6.0----30.02- 84.0 90.3----
2024-07-22 0630 S 4.1 6.0----30.02- 84.0 90.3----
2024-07-22 0624SSE 4.1 5.1----30.02- 84.2 90.3----
2024-07-22 0618SSE 4.1 5.1----30.03- 84.0 90.3----
2024-07-22 0612SSE 4.1 5.1----30.03- 83.8 90.5----
2024-07-22 0606SSE 2.9 4.1----30.03- 83.8 90.5----
2024-07-22 0600 S 2.9 5.1----30.03-0.04 83.8 90.5----
2024-07-22 0554SSE 2.9 4.1----30.03- 83.8 90.5----
2024-07-22 0548SSE 2.9 5.1----30.03- 83.8 90.5----
2024-07-22 0542SSE 4.1 6.0----30.04- 83.8 90.5----
2024-07-22 0536SSE 4.1 5.1----30.04- 83.8 90.5----
2024-07-22 0530SSE 4.1 5.1----30.04- 83.8 90.5----
2024-07-22 0524SSE 4.1 5.1----30.04- 83.7 90.5----
2024-07-22 0518SSE 4.1 5.1----30.04- 83.7 90.7----
2024-07-22 0512 S 4.1 5.1----30.05- 83.5 90.7----
2024-07-22 0506SSE 4.1 5.1----30.05- 83.5 90.7----
2024-07-22 0500SSE 4.1 5.1----30.05-0.01 83.3 90.9----
2024-07-22 0454 SE 5.1 7.0----30.05- 83.3 90.9----
2024-07-22 0448ESE 6.0 7.0----30.05- 83.5 90.9----
2024-07-22 0442 SE 6.0 7.0----30.05- 83.3 90.9----
2024-07-22 0436ESE 5.1 8.0----30.06- 83.3 90.9----
2024-07-22 0430--------- 83.3 91.0----
2024-07-22 0424--------- 83.1 91.0----
2024-07-22 0418 SE 8.9 9.9----30.07- 83.3 91.0----
2024-07-22 0412ESE 8.0 8.9----30.06- 83.3 91.0----
2024-07-22 0406ESE 8.9 9.9----30.06- 83.3 91.0----
2024-07-22 0400ESE 8.0 8.9----30.07+0.03 83.3 91.0----
2024-07-22 0354ESE 8.0 9.9----30.07- 83.1 91.0----
2024-07-22 0348 E 8.0 11.1----30.07-- 91.0----
2024-07-22 0342 E 9.9 12.0----30.07-- 91.0----
2024-07-22 0336 E 8.9 9.9----30.07-- 91.0----
2024-07-22 0330 E 8.0 8.9----30.08- 83.5 91.0----
2024-07-22 0324 E 9.9 12.0----30.07- 83.3 91.2----
2024-07-22 0318 E 9.9 12.0----30.08- 83.5 91.2----
2024-07-22 0312 E 8.9 11.1----30.08- 84.0 91.2----
2024-07-22 0306 E 9.9 12.0----30.08- 84.0 91.2----
2024-07-22 0300 E 11.1 13.0----30.07+0.06 83.8 91.2----
2024-07-22 0254ENE 12.0 13.0----30.07- 84.0 91.2----
2024-07-22 0248ENE 9.9 12.0----30.06- 84.4 91.2----
2024-07-22 0242NNE 5.1 6.0----30.06- 85.3 91.2----
2024-07-22 0236 NE 5.1 5.1----30.07- 84.7 91.2----
2024-07-22 0230 NE 4.1 5.1------ 84.7 91.2----
2024-07-22 0224 NE 4.1 5.1------ 84.7 91.2----
2024-07-22 0218 NE 4.1 5.1----30.07- 85.3 91.2----
2024-07-22 0212NNE 2.9 4.1----30.07- 85.5 91.2----
2024-07-22 0206NNE 1.9 2.9----30.06- 85.6 91.2----
2024-07-22 0200 N 1.9 2.9----30.06+0.07 85.8 91.2----
2024-07-22 0154NNE 1.9 1.9----30.06- 85.8 91.2----
2024-07-22 0148 N 1.0 1.9----30.06- 85.8 91.2----
2024-07-22 0142- 0.0 1.9----30.06- 86.0 91.2----
2024-07-22 0136NNE 1.0 1.9----30.05- 86.2 91.0----
2024-07-22 0130NNW 1.0 1.9----30.05- 86.4 91.0----
2024-07-22 0124NNW 1.9 1.9----30.05- 86.5 91.0----
2024-07-22 0118 N 1.9 1.9----30.05-- 91.0----
2024-07-22 0112 N 1.0 1.9----30.05-- 91.0----
2024-07-22 0106 N 1.0 1.9----30.04-- 91.0----
2024-07-22 0100 NW 1.0 2.9----30.04+0.04- 91.0----
2024-07-22 0054WNW 1.9 2.9----30.03-- 91.0----
2024-07-22 0048NNW 1.9 2.9----30.03- 86.7 91.0----
2024-07-22 0042 N 1.9 2.9----30.03- 86.7 91.0----
2024-07-22 0036WNW 1.9 5.1----30.03- 86.9 91.0----
2024-07-22 0030 W 4.1 5.1----30.02- 87.1 91.0----
2024-07-22 0024WNW 2.9 4.1----30.02- 87.1 91.0----
2024-07-22 0018 W 4.1 7.0----30.01-- 91.0----
2024-07-22 0012 W 7.0 8.0----30.01-- 91.0----
2024-07-22 0006 W 7.0 8.0----30.01-- 91.0----
2024-07-22 0000 W 5.1 6.0----30.01+0.00 87.4 91.0----
2024-07-21 2354 W 8.0 9.9----30.00- 87.3 90.9----
2024-07-21 2348 W 8.9 9.9----30.00-------
2024-07-21 2342WSW 6.0 7.0----30.00-------
2024-07-21 2336 W 6.0 7.0----30.00-------
2024-07-21 2330WSW 6.0 8.9----29.99- 87.4 90.7----
2024-07-21 2324 W 7.0 8.9----30.00- 87.8 90.7----
2024-07-21 2318 W 7.0 11.1----30.00- 87.6 90.7----
2024-07-21 2312WSW 8.0 11.1----29.99- 87.4 90.5----
2024-07-21 2306WSW 8.0 9.9----30.00- 87.4 90.5----
2024-07-21 2300 W 7.0 8.9----29.99-0.02- 90.5----
2024-07-21 2254 W 8.0 9.9----29.99-- 90.5----
2024-07-21 2248 W 8.9 11.1----29.98- 87.4 90.3----
2024-07-21 2242WSW 8.9 12.0----29.99- 87.3 90.3----
2024-07-21 2236WSW 8.9 12.0----29.98- 87.3 90.3----
2024-07-21 2230-------29.99- 87.3 90.1----
2024-07-21 2224-------29.99- 87.4 90.1----
2024-07-21 2218 W 8.9 11.1----29.99- 87.6 90.1----
2024-07-21 2212 W 7.0 9.9----29.99- 87.8 90.0----
2024-07-21 2206 W 7.0 9.9----29.99- 88.2 90.0----
2024-07-21 2200 W 8.9 11.1----30.00-0.02 87.8 90.0----
2024-07-21 2154 W 8.9 12.0----30.00- 88.0 89.8----
2024-07-21 2148 W 8.9 12.0----30.00- 88.0 89.8----
2024-07-21 2142 W 9.9 11.1----30.01- 88.2 89.8----
2024-07-21 2136 W 9.9 13.0----30.01- 88.2 89.6----
2024-07-21 2130 W 8.9 12.0----30.01-- 89.6----
2024-07-21 2124 W 9.9 12.0----30.01-- 89.6----
2024-07-21 2118-------30.01- 88.2 89.4----
2024-07-21 2112-------30.01- 87.6 89.4----
2024-07-21 2106-------30.00- 88.0 89.4----
2024-07-21 2100 W 8.0 11.1----30.00-0.05 88.2 89.4----
2024-07-21 2054WSW 8.0 8.9----30.00- 87.4 89.4----
2024-07-21 2048WSW 7.0 9.9----30.01- 87.3 89.4----
2024-07-21 2042WSW 8.0 8.9----30.01- 87.3 89.2----
2024-07-21 2036WSW 8.9 9.9----30.01- 87.3 89.2----
2024-07-21 2030-------30.01- 87.6 89.2----
2024-07-21 2024-------30.01- 87.4 89.1----
2024-07-21 2018WSW 8.0 9.9----30.01- 87.3 89.1----
2024-07-21 2012WSW 7.0 8.9----30.01- 87.3 89.1----
2024-07-21 2006 SW 7.0 8.9----30.01- 87.1 88.9----
2024-07-21 2000-------30.01-0.05 86.7 88.9----
2024-07-21 1954-------30.01- 86.9 88.9----